createdAt,value
2023-05-06T00:00:01.784Z,57.9
2023-05-06T00:01:01.941Z,57.7
2023-05-06T00:02:01.285Z,57.7
2023-05-06T00:03:01.397Z,57.6
2023-05-06T00:04:01.479Z,57.6
2023-05-06T00:05:01.251Z,57.4
2023-05-06T00:06:01.314Z,57.4
2023-05-06T00:07:01.281Z,57.4
2023-05-06T00:08:01.631Z,57.2
2023-05-06T00:09:01.305Z,57.2
2023-05-06T00:10:01.574Z,57.2
2023-05-06T00:11:01.247Z,57.0
2023-05-06T00:12:01.779Z,57.0
2023-05-06T00:13:01.338Z,57.0
2023-05-06T00:14:01.343Z,57.0
2023-05-06T00:15:01.865Z,57.0
2023-05-06T00:17:01.614Z,56.8
2023-05-06T00:18:01.951Z,56.7
2023-05-06T00:19:01.865Z,56.7
2023-05-06T00:20:01.853Z,56.5
2023-05-06T00:21:01.281Z,56.7
2023-05-06T00:22:01.297Z,56.5
2023-05-06T00:23:01.692Z,56.5
2023-05-06T00:24:02.908Z,56.3
2023-05-06T00:25:01.968Z,56.1
2023-05-06T00:26:01.351Z,55.9
2023-05-06T00:27:01.287Z,55.9
2023-05-06T00:28:01.258Z,55.8
2023-05-06T00:29:01.284Z,55.8
2023-05-06T00:30:01.326Z,55.8
2023-05-06T00:31:01.279Z,55.6
2023-05-06T00:32:01.347Z,55.4
2023-05-06T00:33:01.365Z,55.4
2023-05-06T00:34:01.396Z,55.2
2023-05-06T00:35:01.812Z,55.2
2023-05-06T00:36:01.581Z,55.0
2023-05-06T00:37:01.645Z,55.0
2023-05-06T00:38:08.618Z,55.0
2023-05-06T00:39:01.243Z,55.0
2023-05-06T00:40:01.929Z,55.0
2023-05-06T00:41:01.726Z,54.9
2023-05-06T00:42:02.176Z,54.9
2023-05-06T00:43:01.529Z,54.9
2023-05-06T00:44:01.331Z,54.7
2023-05-06T00:45:01.844Z,54.5
2023-05-06T00:46:01.870Z,54.3
2023-05-06T00:47:01.834Z,54.3
2023-05-06T00:48:02.189Z,54.3
2023-05-06T00:49:01.484Z,54.3
2023-05-06T00:50:02.144Z,54.3
2023-05-06T00:51:01.433Z,54.3
2023-05-06T00:52:02.545Z,54.3
2023-05-06T00:53:04.458Z,54.5
2023-05-06T00:54:01.819Z,54.3
2023-05-06T00:55:01.927Z,54.3
2023-05-06T00:56:03.100Z,54.3
2023-05-06T00:57:01.503Z,54.1
2023-05-06T00:58:02.069Z,54.1
2023-05-06T00:59:01.879Z,54.0
2023-05-06T01:00:01.636Z,54.0
2023-05-06T01:01:01.993Z,54.0
2023-05-06T01:02:01.421Z,53.8
2023-05-06T01:03:01.343Z,53.8
2023-05-06T01:04:01.251Z,53.8
2023-05-06T01:05:02.012Z,53.6
2023-05-06T01:06:11.504Z,53.6
2023-05-06T01:07:11.516Z,53.6
2023-05-06T01:08:12.273Z,53.6
2023-05-06T01:09:09.228Z,53.4
2023-05-06T01:10:06.666Z,53.4
2023-05-06T01:11:07.113Z,53.4
2023-05-06T01:12:08.760Z,53.4
2023-05-06T01:13:08.004Z,53.4
2023-05-06T01:14:12.880Z,53.4
2023-05-06T01:15:08.105Z,53.4
2023-05-06T01:16:03.628Z,53.4
2023-05-06T01:17:06.190Z,53.4
2023-05-06T01:18:09.324Z,53.4
2023-05-06T01:19:04.804Z,53.4
2023-05-06T01:20:03.003Z,53.2
2023-05-06T01:21:04.393Z,53.2
2023-05-06T01:22:05.413Z,53.2
2023-05-06T01:23:05.864Z,53.2
2023-05-06T01:24:01.622Z,53.2
2023-05-06T01:25:01.273Z,53.1
2023-05-06T01:26:01.252Z,53.1
2023-05-06T01:27:01.302Z,52.9
2023-05-06T01:28:01.646Z,52.7
2023-05-06T01:29:02.096Z,52.7
2023-05-06T01:30:02.342Z,52.9
2023-05-06T01:31:07.912Z,52.9
2023-05-06T01:32:19.228Z,52.9
2023-05-06T01:33:10.675Z,52.9
2023-05-06T01:34:13.369Z,52.7
2023-05-06T01:35:10.384Z,52.7
2023-05-06T01:36:09.509Z,52.7
2023-05-06T01:37:09.958Z,52.7
2023-05-06T01:38:12.357Z,52.7
2023-05-06T01:39:11.247Z,52.5
2023-05-06T01:40:02.852Z,52.5
2023-05-06T01:41:02.912Z,52.5
2023-05-06T01:42:02.642Z,52.5
2023-05-06T01:43:04.378Z,52.5
2023-05-06T01:44:05.018Z,52.5
2023-05-06T01:45:02.046Z,52.3
2023-05-06T01:46:02.597Z,52.3
2023-05-06T01:47:02.517Z,52.3
2023-05-06T01:48:01.793Z,52.3
2023-05-06T01:49:04.303Z,52.3
2023-05-06T01:50:02.416Z,52.3
2023-05-06T01:51:02.221Z,52.2
2023-05-06T01:52:01.764Z,52.2
2023-05-06T01:53:02.451Z,52.2
2023-05-06T01:54:02.017Z,52.2
2023-05-06T01:55:01.612Z,52.0
2023-05-06T01:56:01.861Z,52.0
2023-05-06T01:57:01.249Z,52.0
2023-05-06T01:58:01.662Z,51.8
2023-05-06T01:59:01.577Z,51.8
2023-05-06T02:00:01.900Z,51.8
2023-05-06T02:01:01.297Z,51.8
2023-05-06T02:02:01.609Z,51.6
2023-05-06T02:03:01.402Z,51.6
2023-05-06T02:04:01.507Z,51.6
2023-05-06T02:05:01.290Z,51.6
2023-05-06T02:06:01.652Z,51.6
2023-05-06T02:07:01.299Z,51.6
2023-05-06T02:08:01.270Z,51.6
2023-05-06T02:09:01.730Z,51.4
2023-05-06T02:10:01.692Z,51.4
2023-05-06T02:11:01.252Z,51.4
2023-05-06T02:12:01.662Z,51.4
2023-05-06T02:13:01.946Z,51.3
2023-05-06T02:14:01.260Z,51.4
2023-05-06T02:15:01.655Z,51.3
2023-05-06T02:16:01.405Z,51.4
2023-05-06T02:17:03.172Z,51.4
2023-05-06T02:18:01.774Z,51.4
2023-05-06T02:19:01.616Z,51.4
2023-05-06T02:20:01.309Z,51.4
2023-05-06T02:21:01.434Z,51.4
2023-05-06T02:22:01.300Z,51.4
2023-05-06T02:23:01.256Z,51.4
2023-05-06T02:24:01.568Z,51.4
2023-05-06T02:25:01.884Z,51.4
2023-05-06T02:26:01.604Z,51.6
2023-05-06T02:27:01.583Z,51.4
2023-05-06T02:28:01.340Z,51.4
2023-05-06T02:29:01.293Z,51.4
2023-05-06T02:30:02.016Z,51.4
2023-05-06T02:31:01.316Z,51.4
2023-05-06T02:32:01.332Z,51.4
2023-05-06T02:33:01.395Z,51.4
2023-05-06T02:34:01.290Z,51.4
2023-05-06T02:35:01.943Z,51.4
2023-05-06T02:36:01.660Z,51.3
2023-05-06T02:37:01.292Z,51.3
2023-05-06T02:38:01.305Z,51.3
2023-05-06T02:39:01.548Z,51.3
2023-05-06T02:40:01.344Z,51.4
2023-05-06T02:41:01.679Z,51.4
2023-05-06T02:42:01.452Z,51.4
2023-05-06T02:43:01.625Z,51.4
2023-05-06T02:44:01.331Z,51.4
2023-05-06T02:45:01.527Z,51.4
2023-05-06T02:46:01.929Z,51.4
2023-05-06T02:47:01.244Z,51.6
2023-05-06T02:48:01.723Z,51.6
2023-05-06T02:49:01.254Z,51.6
2023-05-06T02:50:01.326Z,51.6
2023-05-06T02:51:01.682Z,51.6
2023-05-06T02:52:01.592Z,51.6
2023-05-06T02:53:01.594Z,51.6
2023-05-06T02:54:01.616Z,51.8
2023-05-06T02:55:02.272Z,51.6
2023-05-06T02:56:01.271Z,51.6
2023-05-06T02:57:01.904Z,51.6
2023-05-06T02:58:01.602Z,51.6
2023-05-06T02:59:02.888Z,51.6
2023-05-06T03:00:01.325Z,51.6
2023-05-06T03:01:01.646Z,51.6
2023-05-06T03:02:01.638Z,51.6
2023-05-06T03:03:01.375Z,51.6
2023-05-06T03:04:01.290Z,51.6
2023-05-06T03:05:01.764Z,51.6
2023-05-06T03:06:01.553Z,51.6
2023-05-06T03:07:01.320Z,51.6
2023-05-06T03:08:01.848Z,51.6
2023-05-06T03:09:01.668Z,51.6
2023-05-06T03:10:01.646Z,51.6
2023-05-06T03:11:01.241Z,51.6
2023-05-06T03:12:02.351Z,51.6
2023-05-06T03:13:01.678Z,51.4
2023-05-06T03:14:01.249Z,51.4
2023-05-06T03:15:01.651Z,51.4
2023-05-06T03:16:01.883Z,51.4
2023-05-06T03:17:01.335Z,51.4
2023-05-06T03:18:01.647Z,51.4
2023-05-06T03:19:01.563Z,51.4
2023-05-06T03:20:01.272Z,51.4
2023-05-06T03:21:01.336Z,51.3
2023-05-06T03:22:01.602Z,51.3
2023-05-06T03:23:01.298Z,51.3
2023-05-06T03:24:01.324Z,51.3
2023-05-06T03:25:01.312Z,51.3
2023-05-06T03:26:01.241Z,51.3
2023-05-06T03:27:01.508Z,51.3
2023-05-06T03:28:01.391Z,51.3
2023-05-06T03:29:01.318Z,51.3
2023-05-06T03:30:01.802Z,51.3
2023-05-06T03:31:01.415Z,51.3
2023-05-06T03:32:02.828Z,51.3
2023-05-06T03:33:01.722Z,51.4
2023-05-06T03:34:01.657Z,51.3
2023-05-06T03:35:01.249Z,51.3
2023-05-06T03:36:01.710Z,51.3
2023-05-06T03:37:02.112Z,51.3
2023-05-06T03:38:01.650Z,51.3
2023-05-06T03:39:01.553Z,51.3
2023-05-06T03:40:01.277Z,51.3
2023-05-06T03:41:02.031Z,51.3
2023-05-06T03:42:01.673Z,51.1
2023-05-06T03:43:01.298Z,51.1
2023-05-06T03:44:01.646Z,51.1
2023-05-06T03:45:01.269Z,51.1
2023-05-06T03:46:01.341Z,50.9
2023-05-06T03:47:01.344Z,50.9
2023-05-06T03:48:01.289Z,50.9
2023-05-06T03:49:01.255Z,50.9
2023-05-06T03:50:01.245Z,50.7
2023-05-06T03:51:01.958Z,50.7
2023-05-06T03:52:01.580Z,50.7
2023-05-06T03:53:01.640Z,50.7
2023-05-06T03:54:02.027Z,50.7
2023-05-06T03:55:01.237Z,50.9
2023-05-06T03:56:01.298Z,50.7
2023-05-06T03:57:01.306Z,50.7
2023-05-06T03:58:01.642Z,50.7
2023-05-06T03:59:01.303Z,50.7
2023-05-06T04:00:01.248Z,50.7
2023-05-06T04:01:01.644Z,50.7
2023-05-06T04:02:01.349Z,50.7
2023-05-06T04:03:01.901Z,50.7
2023-05-06T04:04:01.854Z,50.7
2023-05-06T04:05:01.703Z,50.9
2023-05-06T04:06:01.550Z,50.7
2023-05-06T04:07:01.692Z,50.7
2023-05-06T04:08:01.642Z,50.7
2023-05-06T04:09:01.307Z,50.7
2023-05-06T04:10:01.642Z,50.7
2023-05-06T04:11:03.872Z,50.7
2023-05-06T04:12:02.553Z,50.7
2023-05-06T04:13:01.621Z,50.7
2023-05-06T04:14:01.897Z,50.7
2023-05-06T04:15:02.595Z,50.7
2023-05-06T04:16:01.943Z,50.7
2023-05-06T04:17:01.233Z,50.9
2023-05-06T04:18:01.782Z,50.9
2023-05-06T04:19:01.273Z,50.9
2023-05-06T04:20:01.603Z,51.1
2023-05-06T04:21:01.254Z,51.1
2023-05-06T04:22:01.297Z,51.1
2023-05-06T04:23:01.437Z,51.1
2023-05-06T04:24:01.310Z,51.1
2023-05-06T04:25:01.869Z,51.1
2023-05-06T04:26:01.574Z,51.1
2023-05-06T04:27:02.808Z,51.1
2023-05-06T04:28:01.300Z,51.1
2023-05-06T04:29:01.244Z,51.1
2023-05-06T04:30:01.724Z,51.1
2023-05-06T04:31:02.453Z,51.1
2023-05-06T04:32:01.355Z,51.1
2023-05-06T04:33:01.290Z,51.1
2023-05-06T04:34:01.678Z,51.1
2023-05-06T04:35:02.055Z,50.9
2023-05-06T04:36:01.908Z,50.9
2023-05-06T04:37:01.247Z,50.9
2023-05-06T04:38:01.603Z,50.9
2023-05-06T04:39:01.278Z,50.9
2023-05-06T04:40:01.390Z,50.7
2023-05-06T04:41:01.316Z,50.7
2023-05-06T04:42:01.287Z,50.7
2023-05-06T04:43:01.321Z,50.7
2023-05-06T04:44:01.665Z,50.7
2023-05-06T04:45:01.603Z,50.7
2023-05-06T04:46:01.290Z,50.5
2023-05-06T04:47:01.423Z,50.5
2023-05-06T04:48:01.355Z,50.5
2023-05-06T04:49:01.682Z,50.5
2023-05-06T04:50:01.703Z,50.4
2023-05-06T04:51:01.317Z,50.4
2023-05-06T04:52:01.295Z,50.4
2023-05-06T04:53:01.315Z,50.2
2023-05-06T04:54:01.442Z,50.2
2023-05-06T04:55:01.648Z,50.2
2023-05-06T04:56:01.330Z,50.2
2023-05-06T04:57:01.656Z,50.0
2023-05-06T04:58:01.426Z,50.2
2023-05-06T04:59:01.537Z,50.2
2023-05-06T05:00:01.761Z,50.0
2023-05-06T05:01:04.284Z,50.0
2023-05-06T05:02:01.648Z,50.0
2023-05-06T05:03:01.488Z,50.0
2023-05-06T05:04:01.595Z,50.0
2023-05-06T05:05:01.259Z,50.0
2023-05-06T05:06:01.389Z,50.0
2023-05-06T05:07:01.241Z,50.0
2023-05-06T05:08:01.245Z,50.0
2023-05-06T05:09:01.763Z,50.0
2023-05-06T05:10:01.253Z,50.0
2023-05-06T05:11:01.615Z,50.0
2023-05-06T05:12:01.806Z,50.0
2023-05-06T05:13:01.292Z,50.2
2023-05-06T05:14:02.253Z,50.2
2023-05-06T05:15:01.674Z,50.2
2023-05-06T05:16:01.649Z,50.2
2023-05-06T05:17:01.628Z,50.4
2023-05-06T05:18:01.691Z,50.4
2023-05-06T05:19:03.490Z,50.4
2023-05-06T05:20:01.421Z,50.4
2023-05-06T05:21:01.252Z,50.4
2023-05-06T05:22:01.308Z,50.4
2023-05-06T05:23:01.598Z,50.4
2023-05-06T05:24:01.611Z,50.4
2023-05-06T05:25:01.324Z,50.4
2023-05-06T05:26:03.586Z,50.4
2023-05-06T05:27:01.242Z,50.4
2023-05-06T05:28:01.539Z,50.4
2023-05-06T05:29:01.331Z,50.4
2023-05-06T05:30:01.693Z,50.4
2023-05-06T05:31:02.552Z,50.4
2023-05-06T05:32:01.503Z,50.4
2023-05-06T05:33:01.310Z,50.2
2023-05-06T05:34:01.807Z,50.2
2023-05-06T05:35:01.558Z,50.2
2023-05-06T05:36:01.431Z,50.2
2023-05-06T05:37:01.597Z,50.0
2023-05-06T05:38:01.607Z,50.0
2023-05-06T05:39:01.238Z,50.0
2023-05-06T05:40:01.949Z,50.0
2023-05-06T05:41:01.235Z,50.0
2023-05-06T05:42:01.397Z,50.0
2023-05-06T05:43:01.575Z,49.8
2023-05-06T05:44:01.613Z,49.8
2023-05-06T05:45:01.647Z,49.8
2023-05-06T05:46:01.635Z,49.8
2023-05-06T05:47:01.969Z,49.8
2023-05-06T05:48:01.359Z,49.8
2023-05-06T05:49:01.594Z,49.8
2023-05-06T05:50:01.319Z,49.8
2023-05-06T05:51:02.019Z,49.6
2023-05-06T05:52:01.326Z,49.6
2023-05-06T05:53:01.501Z,49.6
2023-05-06T05:54:01.330Z,49.6
2023-05-06T05:55:01.301Z,49.5
2023-05-06T05:56:01.298Z,49.5
2023-05-06T05:57:01.628Z,49.5
2023-05-06T05:58:01.249Z,49.5
2023-05-06T05:59:01.669Z,49.5
2023-05-06T06:00:01.839Z,49.5
2023-05-06T06:01:01.685Z,49.5
2023-05-06T06:02:01.664Z,49.5
2023-05-06T06:03:01.458Z,49.3
2023-05-06T06:04:01.980Z,49.3
2023-05-06T06:05:01.339Z,49.3
2023-05-06T06:06:01.751Z,49.3
2023-05-06T06:07:01.936Z,49.3
2023-05-06T06:08:03.639Z,49.1
2023-05-06T06:09:01.628Z,49.1
2023-05-06T06:10:01.281Z,49.1
2023-05-06T06:11:01.607Z,49.1
2023-05-06T06:12:01.303Z,49.1
2023-05-06T06:13:01.291Z,49.1
2023-05-06T06:14:01.321Z,49.1
2023-05-06T06:15:01.626Z,49.1
2023-05-06T06:16:01.328Z,49.1
2023-05-06T06:17:01.350Z,48.9
2023-05-06T06:18:01.817Z,48.9
2023-05-06T06:19:01.683Z,48.9
2023-05-06T06:20:01.734Z,48.9
2023-05-06T06:21:01.601Z,48.9
2023-05-06T06:22:01.247Z,48.9
2023-05-06T06:23:01.855Z,48.9
2023-05-06T06:24:01.632Z,48.9
2023-05-06T06:25:01.322Z,48.9
2023-05-06T06:26:01.880Z,48.9
2023-05-06T06:27:01.274Z,49.1
2023-05-06T06:28:01.254Z,49.1
2023-05-06T06:29:01.385Z,49.1
2023-05-06T06:30:01.495Z,48.9
2023-05-06T06:31:01.305Z,48.9
2023-05-06T06:32:02.828Z,48.9
2023-05-06T06:33:01.658Z,48.9
2023-05-06T06:34:01.262Z,48.9
2023-05-06T06:35:01.710Z,48.9
2023-05-06T06:36:02.120Z,48.9
2023-05-06T06:37:01.566Z,48.9
2023-05-06T06:38:01.626Z,48.9
2023-05-06T06:39:01.230Z,48.7
2023-05-06T06:40:01.299Z,48.7
2023-05-06T06:41:01.853Z,48.7
2023-05-06T06:42:01.936Z,48.9
2023-05-06T06:43:01.280Z,48.9
2023-05-06T06:44:01.606Z,48.9
2023-05-06T06:45:01.822Z,48.9
2023-05-06T06:46:01.291Z,48.9
2023-05-06T06:47:01.298Z,48.9
2023-05-06T06:48:01.689Z,48.9
2023-05-06T06:49:01.271Z,48.9
2023-05-06T06:50:01.263Z,48.9
2023-05-06T06:51:01.307Z,48.9
2023-05-06T06:52:01.257Z,48.9
2023-05-06T06:53:01.346Z,48.9
2023-05-06T06:54:01.631Z,48.9
2023-05-06T06:55:01.781Z,48.9
2023-05-06T06:56:01.743Z,48.9
2023-05-06T06:57:01.601Z,48.9
2023-05-06T06:58:01.842Z,49.1
2023-05-06T06:59:01.488Z,48.9
2023-05-06T07:00:01.302Z,48.9
2023-05-06T07:01:01.318Z,48.9
2023-05-06T07:02:02.148Z,48.7
2023-05-06T07:03:01.331Z,48.7
2023-05-06T07:04:01.613Z,48.7
2023-05-06T07:05:01.749Z,48.7
2023-05-06T07:06:01.346Z,48.7
2023-05-06T07:07:01.680Z,48.6
2023-05-06T07:08:01.675Z,48.6
2023-05-06T07:09:01.597Z,48.6
2023-05-06T07:10:01.824Z,48.6
2023-05-06T07:11:01.581Z,48.6
2023-05-06T07:12:01.685Z,48.6
2023-05-06T07:13:01.683Z,48.6
2023-05-06T07:14:01.606Z,48.6
2023-05-06T07:15:01.637Z,48.6
2023-05-06T07:16:01.293Z,48.6
2023-05-06T07:17:01.636Z,48.4
2023-05-06T07:18:01.260Z,48.4
2023-05-06T07:19:01.580Z,48.4
2023-05-06T07:20:01.254Z,48.4
2023-05-06T07:21:02.062Z,48.4
2023-05-06T07:22:01.239Z,48.4
2023-05-06T07:23:01.658Z,48.4
2023-05-06T07:24:01.291Z,48.4
2023-05-06T07:25:01.638Z,48.4
2023-05-06T07:26:01.248Z,48.2
2023-05-06T07:27:01.736Z,48.2
2023-05-06T07:28:01.296Z,48.2
2023-05-06T07:29:01.360Z,48.0
2023-05-06T07:30:01.794Z,48.0
2023-05-06T07:31:01.696Z,48.0
2023-05-06T07:32:01.945Z,48.0
2023-05-06T07:33:01.419Z,48.0
2023-05-06T07:34:01.283Z,48.0
2023-05-06T07:35:01.350Z,47.8
2023-05-06T07:36:01.308Z,47.8
2023-05-06T07:37:01.704Z,47.8
2023-05-06T07:38:01.306Z,47.8
2023-05-06T07:39:01.375Z,47.7
2023-05-06T07:40:01.704Z,47.7
2023-05-06T07:41:01.365Z,47.5
2023-05-06T07:42:01.317Z,47.5
2023-05-06T07:43:02.058Z,47.5
2023-05-06T07:44:01.798Z,47.5
2023-05-06T07:45:01.290Z,47.3
2023-05-06T07:46:01.707Z,47.3
2023-05-06T07:47:01.469Z,47.3
2023-05-06T07:48:01.763Z,47.3
2023-05-06T07:49:01.265Z,47.3
2023-05-06T07:50:01.660Z,47.1
2023-05-06T07:51:02.874Z,47.1
2023-05-06T07:52:01.575Z,47.1
2023-05-06T07:53:01.306Z,47.1
2023-05-06T07:54:01.479Z,47.1
2023-05-06T07:55:01.566Z,47.1
2023-05-06T07:56:01.599Z,47.1
2023-05-06T07:57:01.257Z,47.1
2023-05-06T07:58:01.256Z,46.9
2023-05-06T07:59:01.255Z,46.9
2023-05-06T08:00:02.320Z,46.9
2023-05-06T08:01:01.673Z,46.9
2023-05-06T08:02:01.958Z,46.8
2023-05-06T08:03:01.771Z,46.8
2023-05-06T08:04:01.697Z,46.8
2023-05-06T08:05:01.809Z,46.8
2023-05-06T08:06:01.646Z,46.6
2023-05-06T08:07:01.626Z,46.6
2023-05-06T08:08:01.743Z,46.6
2023-05-06T08:09:01.228Z,46.6
2023-05-06T08:10:01.706Z,46.4
2023-05-06T08:11:01.654Z,46.4
2023-05-06T08:12:01.745Z,46.4
2023-05-06T08:13:01.364Z,46.4
2023-05-06T08:14:01.292Z,46.6
2023-05-06T08:15:01.958Z,46.6
2023-05-06T08:16:01.851Z,46.4
2023-05-06T08:17:01.731Z,46.4
2023-05-06T08:18:13.906Z,46.6
2023-05-06T08:19:01.297Z,46.6
2023-05-06T08:20:01.317Z,46.6
2023-05-06T08:21:01.270Z,46.4
2023-05-06T08:22:01.254Z,46.4
2023-05-06T08:23:01.647Z,46.4
2023-05-06T08:24:01.268Z,46.4
2023-05-06T08:25:01.676Z,46.4
2023-05-06T08:26:01.628Z,46.4
2023-05-06T08:27:01.494Z,46.4
2023-05-06T08:28:01.637Z,46.4
2023-05-06T08:29:01.840Z,46.4
2023-05-06T08:30:01.378Z,46.2
2023-05-06T08:31:01.297Z,46.2
2023-05-06T08:32:01.392Z,46.2
2023-05-06T08:33:01.912Z,46.2
2023-05-06T08:34:01.685Z,46.2
2023-05-06T08:35:01.294Z,46.2
2023-05-06T08:36:01.560Z,46.2
2023-05-06T08:37:01.735Z,46.2
2023-05-06T08:38:01.397Z,46.4
2023-05-06T08:39:01.610Z,46.4
2023-05-06T08:40:01.304Z,46.4
2023-05-06T08:41:08.482Z,46.4
2023-05-06T08:42:03.545Z,46.4
2023-05-06T08:43:04.322Z,46.4
2023-05-06T08:44:04.285Z,46.4
2023-05-06T08:45:01.304Z,46.4
2023-05-06T08:46:01.796Z,46.4
2023-05-06T08:47:01.634Z,46.4
2023-05-06T08:48:01.760Z,46.2
2023-05-06T08:49:01.477Z,46.2
2023-05-06T08:50:01.778Z,46.2
2023-05-06T08:51:02.780Z,46.2
2023-05-06T08:52:04.573Z,46.2
2023-05-06T08:53:02.052Z,46.2
2023-05-06T08:54:02.749Z,46.2
2023-05-06T08:55:02.650Z,46.2
2023-05-06T08:56:03.070Z,46.0
2023-05-06T08:57:04.124Z,46.0
2023-05-06T08:58:04.218Z,46.0
2023-05-06T08:59:01.782Z,46.0
2023-05-06T09:00:02.246Z,46.0
2023-05-06T09:01:02.749Z,46.0
2023-05-06T09:02:02.022Z,46.0
2023-05-06T09:03:01.782Z,45.9
2023-05-06T09:04:02.880Z,45.9
2023-05-06T09:05:02.303Z,45.9
2023-05-06T09:06:01.626Z,45.9
2023-05-06T09:07:01.374Z,45.9
2023-05-06T09:08:01.874Z,45.9
2023-05-06T09:09:01.277Z,45.9
2023-05-06T09:10:05.329Z,45.9
2023-05-06T09:11:01.921Z,45.9
2023-05-06T09:12:01.551Z,45.9
2023-05-06T09:13:01.318Z,45.7
2023-05-06T09:14:07.678Z,45.9
2023-05-06T09:15:01.597Z,45.9
2023-05-06T09:16:01.308Z,45.9
2023-05-06T09:17:01.738Z,45.9
2023-05-06T09:18:01.719Z,45.9
2023-05-06T09:19:01.390Z,45.9
2023-05-06T09:20:01.654Z,45.9
2023-05-06T09:21:03.811Z,45.9
2023-05-06T09:22:02.739Z,45.9
2023-05-06T09:23:01.744Z,45.9
2023-05-06T09:24:02.633Z,45.9
2023-05-06T09:25:02.550Z,45.9
2023-05-06T09:26:01.737Z,45.9
2023-05-06T09:27:01.302Z,45.9
2023-05-06T09:28:05.647Z,45.9
2023-05-06T09:29:02.765Z,45.9
2023-05-06T09:30:03.477Z,45.9
2023-05-06T09:31:02.667Z,45.7
2023-05-06T09:32:04.119Z,45.9
2023-05-06T09:33:02.359Z,45.9
2023-05-06T09:34:01.617Z,45.9
2023-05-06T09:35:01.999Z,45.9
2023-05-06T09:36:01.621Z,45.9
2023-05-06T09:37:01.852Z,45.9
2023-05-06T09:38:01.681Z,45.9
2023-05-06T09:39:01.333Z,45.9
2023-05-06T09:40:01.352Z,45.9
2023-05-06T09:41:03.142Z,45.7
2023-05-06T09:42:01.302Z,45.7
2023-05-06T09:43:02.271Z,45.7
2023-05-06T09:44:02.812Z,45.7
2023-05-06T09:45:02.413Z,45.7
2023-05-06T09:46:02.172Z,45.7
2023-05-06T09:47:01.685Z,45.7
2023-05-06T09:48:01.534Z,45.7
2023-05-06T09:49:02.400Z,45.7
2023-05-06T09:50:02.112Z,45.7
2023-05-06T09:51:02.729Z,45.7
2023-05-06T09:52:01.329Z,45.7
2023-05-06T09:53:04.747Z,45.7
2023-05-06T09:54:02.853Z,45.7
2023-05-06T09:55:02.756Z,45.7
2023-05-06T09:56:02.949Z,45.7
2023-05-06T09:57:03.780Z,45.7
2023-05-06T09:58:02.125Z,45.7
2023-05-06T09:59:03.314Z,45.7
2023-05-06T10:00:01.809Z,45.7
2023-05-06T10:01:02.896Z,45.9
2023-05-06T10:02:03.846Z,45.9
2023-05-06T10:03:03.680Z,45.9
2023-05-06T10:04:04.865Z,45.9
2023-05-06T10:05:04.793Z,45.9
2023-05-06T10:06:04.165Z,45.9
2023-05-06T10:07:02.823Z,45.9
2023-05-06T10:08:01.695Z,45.9
2023-05-06T10:09:02.446Z,45.9
2023-05-06T10:10:06.557Z,46.0
2023-05-06T10:11:01.890Z,46.0
2023-05-06T10:12:01.697Z,46.0
2023-05-06T10:13:01.937Z,46.0
2023-05-06T10:14:01.917Z,46.0
2023-05-06T10:15:02.189Z,46.0
2023-05-06T10:16:01.477Z,46.2
2023-05-06T10:17:03.168Z,46.2
2023-05-06T10:18:02.626Z,46.2
2023-05-06T10:19:04.602Z,46.4
2023-05-06T10:20:02.555Z,46.4
2023-05-06T10:21:04.663Z,46.6
2023-05-06T10:22:09.798Z,46.6
2023-05-06T10:23:08.983Z,46.8
2023-05-06T10:24:05.027Z,46.8
2023-05-06T10:25:09.676Z,46.9
2023-05-06T10:26:06.407Z,46.9
2023-05-06T10:27:04.614Z,47.1
2023-05-06T10:28:06.172Z,47.1
2023-05-06T10:29:03.784Z,47.3
2023-05-06T10:30:01.275Z,47.5
2023-05-06T10:31:06.347Z,47.7
2023-05-06T10:32:02.453Z,47.8
2023-05-06T10:33:04.849Z,48.0
2023-05-06T10:34:04.052Z,48.0
2023-05-06T10:35:07.562Z,48.2
2023-05-06T10:36:12.688Z,48.4
2023-05-06T10:37:03.082Z,48.6
2023-05-06T10:38:04.174Z,48.6
2023-05-06T10:39:02.148Z,48.7
2023-05-06T10:40:04.022Z,48.7
2023-05-06T10:41:02.448Z,48.9
2023-05-06T10:42:01.288Z,48.9
2023-05-06T10:43:20.743Z,48.9
2023-05-06T10:44:01.312Z,49.1
2023-05-06T10:45:02.472Z,49.3
2023-05-06T10:46:05.245Z,49.3
2023-05-06T10:47:01.256Z,49.5
2023-05-06T10:48:09.055Z,49.6
2023-05-06T10:49:18.381Z,49.8
2023-05-06T10:50:19.234Z,50.0
2023-05-06T10:51:20.707Z,50.2
2023-05-06T10:52:10.843Z,50.2
2023-05-06T10:53:02.150Z,50.4
2023-05-06T10:54:02.991Z,50.5
2023-05-06T10:55:20.734Z,50.7
2023-05-06T10:56:06.655Z,50.7
2023-05-06T10:57:09.303Z,50.9
2023-05-06T10:58:03.128Z,51.1
2023-05-06T10:59:04.426Z,51.3
2023-05-06T11:00:01.382Z,51.4
2023-05-06T11:01:01.898Z,51.6
2023-05-06T11:02:08.538Z,51.8
2023-05-06T11:03:04.660Z,51.8
2023-05-06T11:04:06.246Z,52.0
2023-05-06T11:05:03.345Z,52.2
2023-05-06T11:06:01.320Z,52.2
2023-05-06T11:07:08.046Z,52.2
2023-05-06T11:08:09.559Z,52.3
2023-05-06T11:09:02.239Z,52.5
2023-05-06T11:10:02.997Z,52.7
2023-05-06T11:11:11.160Z,52.9
2023-05-06T11:12:03.347Z,52.9
2023-05-06T11:13:20.854Z,53.1
2023-05-06T11:14:11.425Z,53.2
2023-05-06T11:15:19.246Z,53.4
2023-05-06T11:16:01.272Z,53.6
2023-05-06T11:17:02.932Z,53.8
2023-05-06T11:18:20.748Z,54.0
2023-05-06T11:19:01.794Z,54.1
2023-05-06T11:20:18.949Z,54.1
2023-05-06T11:21:20.697Z,54.3
2023-05-06T11:22:03.368Z,54.5
2023-05-06T11:23:01.512Z,54.7
2023-05-06T11:24:10.971Z,54.9
2023-05-06T11:25:05.666Z,55.0
2023-05-06T11:26:06.897Z,55.2
2023-05-06T11:27:01.605Z,55.2
2023-05-06T11:28:05.853Z,55.4
2023-05-06T11:29:02.495Z,55.6
2023-05-06T11:30:01.666Z,55.6
2023-05-06T11:31:01.706Z,55.8
2023-05-06T11:32:02.912Z,55.9
2023-05-06T11:33:05.223Z,56.1
2023-05-06T11:34:05.983Z,56.1
2023-05-06T11:35:01.700Z,56.3
2023-05-06T11:36:02.784Z,56.5
2023-05-06T11:37:03.043Z,56.7
2023-05-06T11:38:01.415Z,56.7
2023-05-06T11:39:05.662Z,56.8
2023-05-06T11:40:01.307Z,57.0
2023-05-06T11:41:01.274Z,57.2
2023-05-06T11:42:02.292Z,57.4
2023-05-06T11:43:10.198Z,57.6
2023-05-06T11:44:01.308Z,57.7
2023-05-06T11:45:01.510Z,57.9
2023-05-06T11:46:01.877Z,57.9
2023-05-06T11:47:03.294Z,58.1
2023-05-06T11:48:01.555Z,58.3
2023-05-06T11:49:01.235Z,58.5
2023-05-06T11:50:02.903Z,58.5
2023-05-06T11:51:01.585Z,58.6
2023-05-06T11:52:02.848Z,58.8
2023-05-06T11:53:01.875Z,59.0
2023-05-06T11:54:07.701Z,59.2
2023-05-06T11:55:01.309Z,59.4
2023-05-06T11:56:02.058Z,59.4
2023-05-06T11:57:01.669Z,59.5
2023-05-06T11:58:01.492Z,59.7
2023-05-06T11:59:01.251Z,59.9
2023-05-06T12:00:01.723Z,60.1
2023-05-06T12:01:03.200Z,60.3
2023-05-06T12:02:04.515Z,60.4
2023-05-06T12:03:01.418Z,60.4
2023-05-06T12:04:01.909Z,60.6
2023-05-06T12:05:02.399Z,60.8
2023-05-06T12:06:01.612Z,61.0
2023-05-06T12:07:03.962Z,61.2
2023-05-06T12:08:01.502Z,61.3
2023-05-06T12:09:03.267Z,61.5
2023-05-06T12:10:02.264Z,61.7
2023-05-06T12:11:03.957Z,61.7
2023-05-06T12:12:02.539Z,61.7
2023-05-06T12:13:02.456Z,61.9
2023-05-06T12:14:02.887Z,62.2
2023-05-06T12:15:01.473Z,62.4
2023-05-06T12:16:03.510Z,62.2
2023-05-06T12:17:02.017Z,62.4
2023-05-06T12:18:03.224Z,62.6
2023-05-06T12:19:02.217Z,62.6
2023-05-06T12:20:01.744Z,62.6
2023-05-06T12:21:02.253Z,62.6
2023-05-06T12:22:14.781Z,62.8
2023-05-06T12:23:05.454Z,63.0
2023-05-06T12:24:01.316Z,63.3
2023-05-06T12:25:13.065Z,63.1
2023-05-06T12:26:02.956Z,63.3
2023-05-06T12:27:01.683Z,63.5
2023-05-06T12:28:11.247Z,63.7
2023-05-06T12:29:05.075Z,63.9
2023-05-06T12:30:02.067Z,64.0
2023-05-06T12:31:18.616Z,64.4
2023-05-06T12:32:10.332Z,64.4
2023-05-06T12:33:01.879Z,64.6
2023-05-06T12:34:02.540Z,64.8
2023-05-06T12:35:01.617Z,64.9
2023-05-06T12:36:06.519Z,64.9
2023-05-06T12:37:01.669Z,65.1
2023-05-06T12:38:08.924Z,65.1
2023-05-06T12:39:01.557Z,65.3
2023-05-06T12:40:02.013Z,65.3
2023-05-06T12:41:01.615Z,65.5
2023-05-06T12:42:01.669Z,65.5
2023-05-06T12:43:01.878Z,65.5
2023-05-06T12:44:01.779Z,65.7
2023-05-06T12:45:12.776Z,65.8
2023-05-06T12:46:03.375Z,65.8
2023-05-06T12:47:03.434Z,66.0
2023-05-06T12:48:02.103Z,66.2
2023-05-06T12:49:02.437Z,66.2
2023-05-06T12:50:01.628Z,66.4
2023-05-06T12:51:18.692Z,66.6
2023-05-06T12:52:05.166Z,66.6
2023-05-06T12:53:02.483Z,66.7
2023-05-06T12:54:01.344Z,66.9
2023-05-06T12:55:01.283Z,67.1
2023-05-06T12:56:01.602Z,67.1
2023-05-06T12:57:01.707Z,67.1
2023-05-06T12:58:01.407Z,66.7
2023-05-06T12:59:02.382Z,66.7
2023-05-06T13:00:02.527Z,66.6
2023-05-06T13:01:01.265Z,66.6
2023-05-06T13:02:02.028Z,66.7
2023-05-06T13:03:01.833Z,66.7
2023-05-06T13:04:01.253Z,66.9
2023-05-06T13:05:01.251Z,67.1
2023-05-06T13:06:01.270Z,67.1
2023-05-06T13:07:01.643Z,67.5
2023-05-06T13:08:01.238Z,67.6
2023-05-06T13:09:01.312Z,67.8
2023-05-06T13:10:01.705Z,67.8
2023-05-06T13:11:01.666Z,68.2
2023-05-06T13:12:01.590Z,68.2
2023-05-06T13:13:01.554Z,68.2
2023-05-06T13:14:01.632Z,68.4
2023-05-06T13:15:01.586Z,68.2
2023-05-06T13:16:01.703Z,68.4
2023-05-06T13:17:01.725Z,68.4
2023-05-06T13:18:01.800Z,68.4
2023-05-06T13:19:02.730Z,68.5